sensor_id;sensor_type;location;lat;lon;timestamp;pressure;altitude;pressure_sealevel;temperature;humidity
7660;BME280;3872;47.902;8.162;2023-02-23T00:01:57;91515.13;;;8.34;100.00
7660;BME280;3872;47.902;8.162;2023-02-23T00:04:25;91514.84;;;8.35;100.00
7660;BME280;3872;47.902;8.162;2023-02-23T00:06:53;91513.94;;;7.94;100.00
7660;BME280;3872;47.902;8.162;2023-02-23T00:09:20;91511.44;;;7.83;100.00
7660;BME280;3872;47.902;8.162;2023-02-23T00:11:48;91509.22;;;8.09;100.00
7660;BME280;3872;47.902;8.162;2023-02-23T00:14:15;91506.56;;;8.28;100.00
7660;BME280;3872;47.902;8.162;2023-02-23T00:16:41;91507.91;;;8.58;100.00
7660;BME280;3872;47.902;8.162;2023-02-23T00:19:09;91506.84;;;8.26;100.00
7660;BME280;3872;47.902;8.162;2023-02-23T00:21:39;91507.66;;;8.08;100.00
7660;BME280;3872;47.902;8.162;2023-02-23T00:24:09;91514.44;;;7.96;100.00
7660;BME280;3872;47.902;8.162;2023-02-23T00:26:38;91515.28;;;8.56;100.00
7660;BME280;3872;47.902;8.162;2023-02-23T00:29:07;91515.59;;;8.03;100.00
7660;BME280;3872;47.902;8.162;2023-02-23T00:31:34;91514.97;;;8.44;100.00
7660;BME280;3872;47.902;8.162;2023-02-23T00:34:04;91512.66;;;8.56;100.00
7660;BME280;3872;47.902;8.162;2023-02-23T00:36:33;91505.38;;;8.67;100.00
7660;BME280;3872;47.902;8.162;2023-02-23T00:39:02;91514.59;;;8.50;100.00
7660;BME280;3872;47.902;8.162;2023-02-23T00:41:37;91518.09;;;8.59;100.00
7660;BME280;3872;47.902;8.162;2023-02-23T00:44:06;91509.06;;;8.66;100.00
7660;BME280;3872;47.902;8.162;2023-02-23T00:46:33;91509.09;;;8.79;100.00
7660;BME280;3872;47.902;8.162;2023-02-23T00:48:59;91512.38;;;8.71;100.00
7660;BME280;3872;47.902;8.162;2023-02-23T00:51:27;91515.00;;;8.71;100.00
7660;BME280;3872;47.902;8.162;2023-02-23T00:53:55;91518.66;;;8.43;100.00
7660;BME280;3872;47.902;8.162;2023-02-23T00:56:22;91506.63;;;8.55;100.00
7660;BME280;3872;47.902;8.162;2023-02-23T00:58:50;91508.69;;;8.86;100.00
7660;BME280;3872;47.902;8.162;2023-02-23T01:01:17;91509.47;;;8.86;100.00
7660;BME280;3872;47.902;8.162;2023-02-23T01:03:44;91512.38;;;8.98;100.00
7660;BME280;3872;47.902;8.162;2023-02-23T01:06:13;91501.31;;;8.88;100.00
7660;BME280;3872;47.902;8.162;2023-02-23T01:08:42;91509.38;;;8.91;100.00
7660;BME280;3872;47.902;8.162;2023-02-23T01:11:11;91502.66;;;8.85;100.00
7660;BME280;3872;47.902;8.162;2023-02-23T01:13:38;91508.19;;;8.84;100.00
7660;BME280;3872;47.902;8.162;2023-02-23T01:16:07;91504.22;;;8.86;100.00
7660;BME280;3872;47.902;8.162;2023-02-23T01:18:35;91497.41;;;8.99;100.00
7660;BME280;3872;47.902;8.162;2023-02-23T01:21:03;91509.06;;;9.07;100.00
7660;BME280;3872;47.902;8.162;2023-02-23T01:23:31;91510.66;;;8.94;100.00
7660;BME280;3872;47.902;8.162;2023-02-23T01:25:58;91505.47;;;8.89;100.00
7660;BME280;3872;47.902;8.162;2023-02-23T01:28:24;91500.72;;;8.91;100.00
7660;BME280;3872;47.902;8.162;2023-02-23T01:30:51;91503.34;;;9.04;100.00
7660;BME280;3872;47.902;8.162;2023-02-23T01:33:19;91504.63;;;8.93;100.00
7660;BME280;3872;47.902;8.162;2023-02-23T01:35:56;91495.56;;;8.86;100.00
7660;BME280;3872;47.902;8.162;2023-02-23T01:38:22;91503.81;;;8.38;100.00
7660;BME280;3872;47.902;8.162;2023-02-23T01:40:49;91493.34;;;8.66;100.00
7660;BME280;3872;47.902;8.162;2023-02-23T01:43:17;91496.53;;;8.76;100.00
7660;BME280;3872;47.902;8.162;2023-02-23T01:45:45;91494.50;;;8.73;100.00
7660;BME280;3872;47.902;8.162;2023-02-23T01:48:14;91494.59;;;8.68;100.00
7660;BME280;3872;47.902;8.162;2023-02-23T01:50:48;91493.13;;;8.62;100.00
7660;BME280;3872;47.902;8.162;2023-02-23T01:53:17;91491.00;;;8.78;100.00
7660;BME280;3872;47.902;8.162;2023-02-23T01:55:46;91490.13;;;8.82;100.00
7660;BME280;3872;47.902;8.162;2023-02-23T01:58:16;91485.09;;;8.72;100.00
7660;BME280;3872;47.902;8.162;2023-02-23T02:00:46;91484.59;;;8.70;100.00
7660;BME280;3872;47.902;8.162;2023-02-23T02:03:18;91487.31;;;8.79;100.00
7660;BME280;3872;47.902;8.162;2023-02-23T02:05:50;91495.47;;;8.77;100.00
7660;BME280;3872;47.902;8.162;2023-02-23T02:08:18;91483.69;;;8.61;100.00
7660;BME280;3872;47.902;8.162;2023-02-23T02:10:48;91485.97;;;8.21;100.00
7660;BME280;3872;47.902;8.162;2023-02-23T02:13:22;91492.59;;;8.00;100.00
7660;BME280;3872;47.902;8.162;2023-02-23T02:16:01;91495.13;;;8.05;100.00
7660;BME280;3872;47.902;8.162;2023-02-23T02:18:34;91488.66;;;8.16;100.00
7660;BME280;3872;47.902;8.162;2023-02-23T02:24:32;91480.28;;;8.33;100.00
7660;BME280;3872;47.902;8.162;2023-02-23T02:27:30;91474.75;;;8.48;100.00
7660;BME280;3872;47.902;8.162;2023-02-23T02:30:22;91481.66;;;8.12;100.00
7660;BME280;3872;47.902;8.162;2023-02-23T02:33:18;91475.41;;;7.94;100.00
7660;BME280;3872;47.902;8.162;2023-02-23T02:36:09;91472.81;;;8.08;100.00
7660;BME280;3872;47.902;8.162;2023-02-23T02:38:48;91463.94;;;8.22;100.00
7660;BME280;3872;47.902;8.162;2023-02-23T02:41:24;91469.22;;;8.17;100.00
7660;BME280;3872;47.902;8.162;2023-02-23T02:43:57;91464.97;;;7.57;100.00
7660;BME280;3872;47.902;8.162;2023-02-23T02:46:26;91460.63;;;7.52;100.00
7660;BME280;3872;47.902;8.162;2023-02-23T02:48:57;91458.47;;;7.54;100.00
7660;BME280;3872;47.902;8.162;2023-02-23T02:51:31;91464.09;;;7.29;100.00
7660;BME280;3872;47.902;8.162;2023-02-23T02:54:08;91460.53;;;7.90;100.00
7660;BME280;3872;47.902;8.162;2023-02-23T02:56:40;91468.00;;;8.15;100.00
7660;BME280;3872;47.902;8.162;2023-02-23T02:59:11;91460.03;;;8.20;100.00
7660;BME280;3872;47.902;8.162;2023-02-23T03:01:56;91458.25;;;8.02;100.00
7660;BME280;3872;47.902;8.162;2023-02-23T03:04:40;91457.22;;;8.16;100.00
7660;BME280;3872;47.902;8.162;2023-02-23T03:07:29;91455.94;;;8.14;100.00
7660;BME280;3872;47.902;8.162;2023-02-23T03:10:24;91461.72;;;7.97;100.00
7660;BME280;3872;47.902;8.162;2023-02-23T03:13:18;91452.88;;;7.61;100.00
7660;BME280;3872;47.902;8.162;2023-02-23T03:16:18;91448.19;;;7.76;100.00
7660;BME280;3872;47.902;8.162;2023-02-23T03:19:12;91459.19;;;7.92;100.00
7660;BME280;3872;47.902;8.162;2023-02-23T03:22:06;91456.72;;;7.82;100.00
7660;BME280;3872;47.902;8.162;2023-02-23T03:25:01;91455.25;;;7.76;100.00
7660;BME280;3872;47.902;8.162;2023-02-23T03:27:52;91460.78;;;7.74;100.00
7660;BME280;3872;47.902;8.162;2023-02-23T03:30:45;91468.06;;;7.77;100.00
7660;BME280;3872;47.902;8.162;2023-02-23T03:33:37;91463.84;;;7.81;100.00
7660;BME280;3872;47.902;8.162;2023-02-23T03:36:25;91462.97;;;7.67;100.00
7660;BME280;3872;47.902;8.162;2023-02-23T03:39:16;91467.56;;;7.75;100.00
7660;BME280;3872;47.902;8.162;2023-02-23T03:42:06;91464.31;;;7.83;100.00
7660;BME280;3872;47.902;8.162;2023-02-23T03:44:54;91469.66;;;7.22;100.00
7660;BME280;3872;47.902;8.162;2023-02-23T03:47:41;91467.06;;;7.22;100.00
7660;BME280;3872;47.902;8.162;2023-02-23T03:50:29;91463.34;;;7.79;100.00
7660;BME280;3872;47.902;8.162;2023-02-23T03:53:17;91460.97;;;8.10;100.00
7660;BME280;3872;47.902;8.162;2023-02-23T03:56:07;91462.03;;;7.96;100.00
7660;BME280;3872;47.902;8.162;2023-02-23T03:58:58;91461.38;;;7.34;100.00
7660;BME280;3872;47.902;8.162;2023-02-23T04:01:45;91456.03;;;7.76;100.00
7660;BME280;3872;47.902;8.162;2023-02-23T04:04:32;91459.72;;;7.75;100.00
7660;BME280;3872;47.902;8.162;2023-02-23T04:07:18;91454.78;;;7.55;100.00
7660;BME280;3872;47.902;8.162;2023-02-23T04:10:04;91450.66;;;7.68;100.00
7660;BME280;3872;47.902;8.162;2023-02-23T04:12:55;91450.75;;;7.63;100.00
7660;BME280;3872;47.902;8.162;2023-02-23T04:15:46;91463.72;;;7.35;100.00
7660;BME280;3872;47.902;8.162;2023-02-23T04:18:16;91461.31;;;7.20;100.00
7660;BME280;3872;47.902;8.162;2023-02-23T04:20:43;91455.09;;;7.16;100.00
7660;BME280;3872;47.902;8.162;2023-02-23T04:23:09;91454.72;;;7.04;100.00
7660;BME280;3872;47.902;8.162;2023-02-23T04:25:36;91452.69;;;7.20;100.00
7660;BME280;3872;47.902;8.162;2023-02-23T04:28:03;91455.94;;;7.30;100.00
7660;BME280;3872;47.902;8.162;2023-02-23T04:30:30;91457.94;;;7.38;100.00
7660;BME280;3872;47.902;8.162;2023-02-23T04:32:57;91456.50;;;7.08;100.00
7660;BME280;3872;47.902;8.162;2023-02-23T04:35:26;91469.81;;;7.31;100.00
7660;BME280;3872;47.902;8.162;2023-02-23T04:37:55;91466.34;;;7.35;100.00
7660;BME280;3872;47.902;8.162;2023-02-23T04:40:22;91467.41;;;7.16;100.00
7660;BME280;3872;47.902;8.162;2023-02-23T04:42:49;91468.53;;;7.28;100.00
7660;BME280;3872;47.902;8.162;2023-02-23T04:45:15;91467.53;;;7.43;100.00
7660;BME280;3872;47.902;8.162;2023-02-23T04:47:42;91466.19;;;7.27;100.00
7660;BME280;3872;47.902;8.162;2023-02-23T04:50:10;91464.63;;;7.26;100.00
7660;BME280;3872;47.902;8.162;2023-02-23T04:52:38;91462.72;;;7.13;100.00
7660;BME280;3872;47.902;8.162;2023-02-23T04:55:05;91465.00;;;7.19;100.00
7660;BME280;3872;47.902;8.162;2023-02-23T04:57:33;91471.84;;;7.34;100.00
7660;BME280;3872;47.902;8.162;2023-02-23T04:59:59;91472.66;;;6.73;100.00
7660;BME280;3872;47.902;8.162;2023-02-23T05:02:26;91471.69;;;6.40;100.00
7660;BME280;3872;47.902;8.162;2023-02-23T05:04:53;91469.63;;;6.61;100.00
7660;BME280;3872;47.902;8.162;2023-02-23T05:07:19;91467.63;;;6.77;100.00
7660;BME280;3872;47.902;8.162;2023-02-23T05:09:47;91471.53;;;6.98;100.00
7660;BME280;3872;47.902;8.162;2023-02-23T05:12:14;91472.75;;;7.05;100.00
7660;BME280;3872;47.902;8.162;2023-02-23T05:14:40;91467.97;;;7.13;100.00
7660;BME280;3872;47.902;8.162;2023-02-23T05:17:07;91471.00;;;7.01;100.00
7660;BME280;3872;47.902;8.162;2023-02-23T05:19:34;91465.25;;;6.99;100.00
7660;BME280;3872;47.902;8.162;2023-02-23T05:22:00;91462.88;;;7.02;100.00
7660;BME280;3872;47.902;8.162;2023-02-23T05:24:27;91467.78;;;6.85;100.00
7660;BME280;3872;47.902;8.162;2023-02-23T05:26:55;91463.59;;;6.84;100.00
7660;BME280;3872;47.902;8.162;2023-02-23T05:29:21;91457.84;;;7.06;100.00
7660;BME280;3872;47.902;8.162;2023-02-23T05:31:48;91464.84;;;7.11;100.00
7660;BME280;3872;47.902;8.162;2023-02-23T05:34:14;91458.63;;;6.88;100.00
7660;BME280;3872;47.902;8.162;2023-02-23T05:36:41;91465.59;;;6.92;100.00
7660;BME280;3872;47.902;8.162;2023-02-23T05:39:08;91460.38;;;7.11;100.00
7660;BME280;3872;47.902;8.162;2023-02-23T05:41:34;91452.53;;;7.11;100.00
7660;BME280;3872;47.902;8.162;2023-02-23T05:44:02;91463.59;;;7.08;100.00
7660;BME280;3872;47.902;8.162;2023-02-23T05:46:29;91465.91;;;6.19;100.00
7660;BME280;3872;47.902;8.162;2023-02-23T05:48:56;91470.13;;;6.63;100.00
7660;BME280;3872;47.902;8.162;2023-02-23T05:51:24;91468.25;;;6.68;100.00
7660;BME280;3872;47.902;8.162;2023-02-23T05:53:51;91465.81;;;6.53;100.00
7660;BME280;3872;47.902;8.162;2023-02-23T05:56:17;91467.75;;;6.66;100.00
7660;BME280;3872;47.902;8.162;2023-02-23T05:58:45;91466.03;;;6.81;100.00
7660;BME280;3872;47.902;8.162;2023-02-23T06:01:14;91464.28;;;6.95;100.00
7660;BME280;3872;47.902;8.162;2023-02-23T06:03:41;91459.53;;;6.97;100.00
7660;BME280;3872;47.902;8.162;2023-02-23T06:06:08;91475.31;;;6.68;100.00
7660;BME280;3872;47.902;8.162;2023-02-23T06:08:35;91471.16;;;6.43;100.00
7660;BME280;3872;47.902;8.162;2023-02-23T06:11:02;91468.81;;;6.65;100.00
7660;BME280;3872;47.902;8.162;2023-02-23T06:13:29;91473.63;;;7.01;100.00
7660;BME280;3872;47.902;8.162;2023-02-23T06:15:56;91469.31;;;7.10;100.00
7660;BME280;3872;47.902;8.162;2023-02-23T06:18:25;91472.16;;;6.90;100.00
7660;BME280;3872;47.902;8.162;2023-02-23T06:20:52;91474.50;;;6.20;100.00
7660;BME280;3872;47.902;8.162;2023-02-23T06:23:19;91473.38;;;6.31;100.00
7660;BME280;3872;47.902;8.162;2023-02-23T06:25:46;91472.31;;;6.32;100.00
7660;BME280;3872;47.902;8.162;2023-02-23T06:28:12;91478.81;;;6.11;100.00
7660;BME280;3872;47.902;8.162;2023-02-23T06:30:39;91481.03;;;6.22;100.00
7660;BME280;3872;47.902;8.162;2023-02-23T06:33:06;91488.53;;;6.77;100.00
7660;BME280;3872;47.902;8.162;2023-02-23T06:35:34;91484.59;;;7.03;100.00
7660;BME280;3872;47.902;8.162;2023-02-23T06:38:01;91486.28;;;7.13;100.00
7660;BME280;3872;47.902;8.162;2023-02-23T06:40:28;91490.25;;;7.10;100.00
7660;BME280;3872;47.902;8.162;2023-02-23T06:42:55;91492.88;;;7.29;100.00
7660;BME280;3872;47.902;8.162;2023-02-23T06:45:21;91491.31;;;7.09;100.00
7660;BME280;3872;47.902;8.162;2023-02-23T06:47:48;91491.00;;;7.11;100.00
7660;BME280;3872;47.902;8.162;2023-02-23T06:50:15;91489.75;;;7.08;100.00
7660;BME280;3872;47.902;8.162;2023-02-23T06:52:43;91494.81;;;7.18;100.00
7660;BME280;3872;47.902;8.162;2023-02-23T06:55:09;91500.06;;;7.18;100.00
7660;BME280;3872;47.902;8.162;2023-02-23T06:57:37;91495.59;;;7.19;100.00
7660;BME280;3872;47.902;8.162;2023-02-23T07:00:04;91505.72;;;7.06;100.00
7660;BME280;3872;47.902;8.162;2023-02-23T07:02:31;91508.84;;;7.08;100.00
7660;BME280;3872;47.902;8.162;2023-02-23T07:04:59;91501.69;;;7.14;100.00
7660;BME280;3872;47.902;8.162;2023-02-23T07:07:25;91516.09;;;7.12;100.00
7660;BME280;3872;47.902;8.162;2023-02-23T07:09:53;91515.75;;;7.18;100.00
7660;BME280;3872;47.902;8.162;2023-02-23T07:12:20;91514.88;;;7.04;100.00
7660;BME280;3872;47.902;8.162;2023-02-23T07:14:46;91513.66;;;7.20;100.00
7660;BME280;3872;47.902;8.162;2023-02-23T07:17:13;91519.19;;;7.37;100.00
7660;BME280;3872;47.902;8.162;2023-02-23T07:19:40;91522.16;;;7.50;100.00
7660;BME280;3872;47.902;8.162;2023-02-23T07:22:06;91527.69;;;7.48;100.00
7660;BME280;3872;47.902;8.162;2023-02-23T07:24:33;91524.56;;;7.46;100.00
7660;BME280;3872;47.902;8.162;2023-02-23T07:27:00;91527.53;;;7.58;100.00
7660;BME280;3872;47.902;8.162;2023-02-23T07:29:27;91520.88;;;7.28;100.00
7660;BME280;3872;47.902;8.162;2023-02-23T07:31:54;91522.94;;;7.31;100.00
7660;BME280;3872;47.902;8.162;2023-02-23T07:34:21;91520.75;;;7.38;100.00
7660;BME280;3872;47.902;8.162;2023-02-23T07:36:47;91518.47;;;7.69;100.00
7660;BME280;3872;47.902;8.162;2023-02-23T07:39:14;91517.63;;;7.74;100.00
7660;BME280;3872;47.902;8.162;2023-02-23T07:41:40;91512.47;;;7.50;100.00
7660;BME280;3872;47.902;8.162;2023-02-23T07:44:17;91514.53;;;8.04;100.00
7660;BME280;3872;47.902;8.162;2023-02-23T07:46:44;91519.03;;;7.29;100.00
7660;BME280;3872;47.902;8.162;2023-02-23T07:49:11;91518.06;;;7.81;100.00
7660;BME280;3872;47.902;8.162;2023-02-23T07:51:38;91522.41;;;8.04;100.00
7660;BME280;3872;47.902;8.162;2023-02-23T07:54:04;91523.31;;;8.13;100.00
7660;BME280;3872;47.902;8.162;2023-02-23T07:56:31;91515.13;;;8.01;100.00
7660;BME280;3872;47.902;8.162;2023-02-23T07:58:58;91527.31;;;8.24;100.00
7660;BME280;3872;47.902;8.162;2023-02-23T08:01:26;91518.59;;;8.29;100.00
7660;BME280;3872;47.902;8.162;2023-02-23T08:03:52;91523.13;;;8.10;100.00
7660;BME280;3872;47.902;8.162;2023-02-23T08:06:19;91527.72;;;7.99;100.00
7660;BME280;3872;47.902;8.162;2023-02-23T08:08:46;91526.06;;;8.03;100.00
7660;BME280;3872;47.902;8.162;2023-02-23T08:11:12;91523.53;;;8.17;100.00
7660;BME280;3872;47.902;8.162;2023-02-23T08:13:40;91523.72;;;8.20;100.00
7660;BME280;3872;47.902;8.162;2023-02-23T08:16:07;91528.25;;;8.34;100.00
7660;BME280;3872;47.902;8.162;2023-02-23T08:18:35;91524.88;;;8.60;100.00
7660;BME280;3872;47.902;8.162;2023-02-23T08:21:02;91527.41;;;8.52;100.00
7660;BME280;3872;47.902;8.162;2023-02-23T08:23:30;91527.44;;;8.66;100.00
7660;BME280;3872;47.902;8.162;2023-02-23T08:25:59;91531.69;;;8.61;100.00
7660;BME280;3872;47.902;8.162;2023-02-23T08:28:26;91527.63;;;8.69;100.00
7660;BME280;3872;47.902;8.162;2023-02-23T08:30:53;91532.69;;;8.66;100.00
7660;BME280;3872;47.902;8.162;2023-02-23T08:33:20;91537.84;;;8.84;100.00
7660;BME280;3872;47.902;8.162;2023-02-23T08:35:48;91533.47;;;8.93;100.00
7660;BME280;3872;47.902;8.162;2023-02-23T08:38:14;91533.75;;;9.06;100.00
7660;BME280;3872;47.902;8.162;2023-02-23T08:40:42;91532.41;;;8.94;100.00
7660;BME280;3872;47.902;8.162;2023-02-23T08:43:09;91532.41;;;8.94;100.00
7660;BME280;3872;47.902;8.162;2023-02-23T08:45:36;91536.09;;;8.93;100.00
7660;BME280;3872;47.902;8.162;2023-02-23T08:48:04;91530.66;;;9.03;100.00
7660;BME280;3872;47.902;8.162;2023-02-23T08:50:30;91530.25;;;8.83;100.00
7660;BME280;3872;47.902;8.162;2023-02-23T08:52:58;91523.75;;;9.21;100.00
7660;BME280;3872;47.902;8.162;2023-02-23T08:55:25;91527.94;;;9.22;100.00
7660;BME280;3872;47.902;8.162;2023-02-23T08:57:51;91526.28;;;9.13;100.00
7660;BME280;3872;47.902;8.162;2023-02-23T09:00:19;91522.34;;;9.51;100.00
7660;BME280;3872;47.902;8.162;2023-02-23T09:02:46;91525.75;;;9.52;100.00
7660;BME280;3872;47.902;8.162;2023-02-23T09:05:13;91531.31;;;9.86;100.00
7660;BME280;3872;47.902;8.162;2023-02-23T09:07:40;91528.56;;;9.91;100.00
7660;BME280;3872;47.902;8.162;2023-02-23T09:10:13;91527.16;;;10.07;100.00
7660;BME280;3872;47.902;8.162;2023-02-23T09:12:40;91526.44;;;10.15;100.00
7660;BME280;3872;47.902;8.162;2023-02-23T09:15:07;91534.81;;;10.40;100.00
7660;BME280;3872;47.902;8.162;2023-02-23T09:17:34;91533.91;;;10.44;100.00
7660;BME280;3872;47.902;8.162;2023-02-23T09:20:01;91536.06;;;10.20;100.00
7660;BME280;3872;47.902;8.162;2023-02-23T09:22:28;91534.25;;;9.71;100.00
7660;BME280;3872;47.902;8.162;2023-02-23T09:24:55;91546.16;;;9.55;100.00
7660;BME280;3872;47.902;8.162;2023-02-23T09:27:22;91540.97;;;9.77;100.00
7660;BME280;3872;47.902;8.162;2023-02-23T09:29:49;91536.41;;;10.05;100.00
7660;BME280;3872;47.902;8.162;2023-02-23T09:32:15;91538.03;;;9.78;100.00
7660;BME280;3872;47.902;8.162;2023-02-23T09:34:42;91532.19;;;10.17;100.00
7660;BME280;3872;47.902;8.162;2023-02-23T09:37:08;91532.47;;;10.38;100.00
7660;BME280;3872;47.902;8.162;2023-02-23T09:39:35;91548.44;;;10.64;100.00
7660;BME280;3872;47.902;8.162;2023-02-23T09:42:09;91535.81;;;10.08;100.00
7660;BME280;3872;47.902;8.162;2023-02-23T09:44:51;91537.38;;;9.59;100.00
7660;BME280;3872;47.902;8.162;2023-02-23T09:47:30;91536.81;;;9.98;100.00
7660;BME280;3872;47.902;8.162;2023-02-23T09:49:58;91538.50;;;10.61;100.00
7660;BME280;3872;47.902;8.162;2023-02-23T09:52:35;91532.09;;;11.24;100.00
7660;BME280;3872;47.902;8.162;2023-02-23T09:55:04;91534.72;;;11.24;100.00
7660;BME280;3872;47.902;8.162;2023-02-23T09:57:36;91539.97;;;9.87;100.00
7660;BME280;3872;47.902;8.162;2023-02-23T10:00:11;91529.28;;;11.12;100.00
7660;BME280;3872;47.902;8.162;2023-02-23T10:02:50;91525.34;;;10.39;100.00
7660;BME280;3872;47.902;8.162;2023-02-23T10:05:20;91529.53;;;11.02;100.00
7660;BME280;3872;47.902;8.162;2023-02-23T10:07:51;91519.53;;;11.77;100.00
7660;BME280;3872;47.902;8.162;2023-02-23T10:10:26;91525.25;;;12.40;100.00
7660;BME280;3872;47.902;8.162;2023-02-23T10:12:58;91530.66;;;11.57;100.00
7660;BME280;3872;47.902;8.162;2023-02-23T10:15:35;91529.53;;;11.50;100.00
7660;BME280;3872;47.902;8.162;2023-02-23T10:18:13;91520.56;;;10.94;100.00
7660;BME280;3872;47.902;8.162;2023-02-23T10:20:48;91522.06;;;11.34;100.00
7660;BME280;3872;47.902;8.162;2023-02-23T10:23:22;91520.16;;;11.18;100.00
7660;BME280;3872;47.902;8.162;2023-02-23T10:25:50;91519.78;;;11.67;100.00
7660;BME280;3872;47.902;8.162;2023-02-23T10:28:20;91517.06;;;11.98;100.00
7660;BME280;3872;47.902;8.162;2023-02-23T10:30:49;91515.63;;;11.01;100.00
7660;BME280;3872;47.902;8.162;2023-02-23T10:33:21;91519.16;;;11.53;100.00
7660;BME280;3872;47.902;8.162;2023-02-23T10:35:54;91519.69;;;12.24;91.86
7660;BME280;3872;47.902;8.162;2023-02-23T10:38:24;91521.34;;;11.60;91.56
7660;BME280;3872;47.902;8.162;2023-02-23T10:40:54;91510.56;;;12.13;88.59
7660;BME280;3872;47.902;8.162;2023-02-23T10:43:20;91503.72;;;11.95;92.50
7660;BME280;3872;47.902;8.162;2023-02-23T10:45:51;91511.81;;;11.24;100.00
7660;BME280;3872;47.902;8.162;2023-02-23T10:48:20;91510.50;;;12.39;87.55
7660;BME280;3872;47.902;8.162;2023-02-23T10:50:49;91504.94;;;12.40;85.47
7660;BME280;3872;47.902;8.162;2023-02-23T10:53:21;91503.56;;;11.91;88.75
7660;BME280;3872;47.902;8.162;2023-02-23T10:56:00;91506.53;;;12.07;91.70
7660;BME280;3872;47.902;8.162;2023-02-23T10:58:28;91505.28;;;12.13;87.34
7660;BME280;3872;47.902;8.162;2023-02-23T11:00:57;91507.59;;;12.14;85.03
7660;BME280;3872;47.902;8.162;2023-02-23T11:03:29;91510.91;;;11.37;95.05
7660;BME280;3872;47.902;8.162;2023-02-23T11:05:57;91511.41;;;11.65;93.65
7660;BME280;3872;47.902;8.162;2023-02-23T11:08:30;91511.28;;;11.70;96.47
7660;BME280;3872;47.902;8.162;2023-02-23T11:11:06;91513.59;;;12.58;87.48
7660;BME280;3872;47.902;8.162;2023-02-23T11:13:36;91505.19;;;13.20;82.37
7660;BME280;3872;47.902;8.162;2023-02-23T11:16:07;91504.53;;;13.23;80.55
7660;BME280;3872;47.902;8.162;2023-02-23T11:18:36;91498.47;;;13.52;74.21
7660;BME280;3872;47.902;8.162;2023-02-23T11:21:08;91504.97;;;13.33;75.74
7660;BME280;3872;47.902;8.162;2023-02-23T11:23:37;91506.69;;;13.29;74.49
7660;BME280;3872;47.902;8.162;2023-02-23T11:26:13;91501.72;;;13.57;75.36
7660;BME280;3872;47.902;8.162;2023-02-23T11:28:50;91490.25;;;13.95;70.26
7660;BME280;3872;47.902;8.162;2023-02-23T11:31:20;91492.81;;;12.94;74.89
7660;BME280;3872;47.902;8.162;2023-02-23T11:33:48;91494.38;;;12.40;83.08
7660;BME280;3872;47.902;8.162;2023-02-23T11:36:18;91482.47;;;13.98;74.97
7660;BME280;3872;47.902;8.162;2023-02-23T11:39:01;91489.97;;;13.08;73.25
7660;BME280;3872;47.902;8.162;2023-02-23T11:41:28;91482.25;;;13.62;71.69
7660;BME280;3872;47.902;8.162;2023-02-23T11:43:57;91474.06;;;13.76;67.36
7660;BME280;3872;47.902;8.162;2023-02-23T11:46:28;91477.56;;;13.38;72.44
7660;BME280;3872;47.902;8.162;2023-02-23T11:48:58;91478.22;;;13.35;72.28
7660;BME280;3872;47.902;8.162;2023-02-23T11:51:26;91474.25;;;13.50;70.86
7660;BME280;3872;47.902;8.162;2023-02-23T11:53:54;91472.16;;;13.85;64.43
7660;BME280;3872;47.902;8.162;2023-02-23T11:56:22;91473.09;;;13.80;66.83
7660;BME280;3872;47.902;8.162;2023-02-23T11:58:50;91470.97;;;13.94;66.67
7660;BME280;3872;47.902;8.162;2023-02-23T12:01:20;91466.97;;;13.88;66.12
7660;BME280;3872;47.902;8.162;2023-02-23T12:03:51;91462.72;;;13.54;67.87
7660;BME280;3872;47.902;8.162;2023-02-23T12:06:27;91474.00;;;13.63;67.31
7660;BME280;3872;47.902;8.162;2023-02-23T12:08:58;91461.47;;;13.93;65.54
7660;BME280;3872;47.902;8.162;2023-02-23T12:11:30;91460.78;;;13.84;65.23
7660;BME280;3872;47.902;8.162;2023-02-23T12:14:02;91465.47;;;14.20;62.68
7660;BME280;3872;47.902;8.162;2023-02-23T12:16:34;91458.78;;;13.81;60.40
7660;BME280;3872;47.902;8.162;2023-02-23T12:19:14;91465.81;;;13.98;59.79
7660;BME280;3872;47.902;8.162;2023-02-23T12:21:46;91461.06;;;13.91;60.67
7660;BME280;3872;47.902;8.162;2023-02-23T12:24:18;91465.31;;;13.33;64.86
7660;BME280;3872;47.902;8.162;2023-02-23T12:26:51;91471.16;;;12.72;68.21
7660;BME280;3872;47.902;8.162;2023-02-23T12:29:23;91461.53;;;13.43;65.41
7660;BME280;3872;47.902;8.162;2023-02-23T12:31:56;91463.38;;;12.03;72.96
7660;BME280;3872;47.902;8.162;2023-02-23T12:34:33;91464.63;;;12.05;73.52
7660;BME280;3872;47.902;8.162;2023-02-23T12:37:14;91463.53;;;11.81;78.38
7660;BME280;3872;47.902;8.162;2023-02-23T12:39:47;91462.66;;;12.57;74.39
7660;BME280;3872;47.902;8.162;2023-02-23T12:42:16;91461.38;;;13.19;70.34
7660;BME280;3872;47.902;8.162;2023-02-23T12:44:52;91462.44;;;13.18;72.13
7660;BME280;3872;47.902;8.162;2023-02-23T12:47:23;91456.38;;;12.79;80.52
7660;BME280;3872;47.902;8.162;2023-02-23T12:49:57;91459.69;;;12.68;89.10
7660;BME280;3872;47.902;8.162;2023-02-23T12:52:33;91464.81;;;11.83;100.00
7660;BME280;3872;47.902;8.162;2023-02-23T12:55:02;91457.19;;;11.64;100.00
7660;BME280;3872;47.902;8.162;2023-02-23T12:57:32;91457.66;;;11.92;100.00
7660;BME280;3872;47.902;8.162;2023-02-23T13:00:21;91459.84;;;11.99;100.00
7660;BME280;3872;47.902;8.162;2023-02-23T13:03:11;91462.41;;;12.33;100.00
7660;BME280;3872;47.902;8.162;2023-02-23T13:05:47;91462.47;;;11.90;100.00
7660;BME280;3872;47.902;8.162;2023-02-23T13:08:23;91463.50;;;11.46;100.00
7660;BME280;3872;47.902;8.162;2023-02-23T13:11:01;91460.41;;;10.79;100.00
7660;BME280;3872;47.902;8.162;2023-02-23T13:13:36;91457.19;;;11.90;100.00
7660;BME280;3872;47.902;8.162;2023-02-23T13:16:11;91455.63;;;11.81;100.00
7660;BME280;3872;47.902;8.162;2023-02-23T13:18:44;91459.06;;;11.98;100.00
7660;BME280;3872;47.902;8.162;2023-02-23T13:21:16;91462.19;;;12.64;100.00
7660;BME280;3872;47.902;8.162;2023-02-23T13:23:57;91463.22;;;11.65;100.00
7660;BME280;3872;47.902;8.162;2023-02-23T13:26:32;91461.97;;;12.23;100.00
7660;BME280;3872;47.902;8.162;2023-02-23T13:29:05;91459.78;;;12.25;100.00
7660;BME280;3872;47.902;8.162;2023-02-23T13:31:35;91455.63;;;11.72;100.00
7660;BME280;3872;47.902;8.162;2023-02-23T13:34:05;91456.25;;;11.69;100.00
7660;BME280;3872;47.902;8.162;2023-02-23T13:36:37;91447.25;;;12.13;100.00
7660;BME280;3872;47.902;8.162;2023-02-23T13:42:25;91450.97;;;11.69;100.00
7660;BME280;3872;47.902;8.162;2023-02-23T13:45:05;91454.94;;;12.44;100.00
7660;BME280;3872;47.902;8.162;2023-02-23T13:47:43;91454.44;;;12.59;100.00
7660;BME280;3872;47.902;8.162;2023-02-23T13:50:17;91444.06;;;13.71;95.04